Time;durP1;ratioP1;P1;durP2;ratioP2;P2;SDS_P1;SDS_P2;PMS_P1;PMS_P2;Temp;Humidity;BMP_temperature;BMP_pressure;BME280_temperature;BME280_humidity;BME280_pressure;Samples;Min_cycle;Max_cycle;Signal;HPM_P1;HPM_P2
2022/03/10 00:00:56;;;;;;;26.10;20.93;;;5.90;30.20;;;;;;20802;6775;119110;-87
2022/03/10 00:03:32;;;;;;;30.77;20.90;;;5.90;30.20;;;;;;20818;6774;117825;-88
2022/03/10 00:06:08;;;;;;;28.83;20.50;;;5.70;30.40;;;;;;20855;6762;117824;-87
2022/03/10 00:08:44;;;;;;;30.87;24.10;;;5.60;30.80;;;;;;20655;6762;276891;-85
2022/03/10 00:11:19;;;;;;;30.23;24.90;;;5.60;30.70;;;;;;20741;6731;290143;-89
2022/03/10 00:13:55;;;;;;;26.13;21.30;;;6.00;30.60;;;;;;20779;6774;116374;-92
2022/03/10 00:16:30;;;;;;;30.90;24.60;;;5.90;30.10;;;;;;20256;6793;337749;-89
2022/03/10 00:19:06;;;;;;;29.83;25.33;;;5.90;30.40;;;;;;20428;6784;335005;-91
2022/03/10 00:21:41;;;;;;;27.23;21.60;;;6.10;30.00;;;;;;20874;6763;116712;-90
2022/03/10 00:24:20;;;;;;;31.00;22.83;;;5.90;30.00;;;;;;20809;6840;117380;-90
2022/03/10 00:26:57;;;;;;;26.00;20.77;;;5.60;30.30;;;;;;19960;6763;69845;-90
2022/03/10 00:29:33;;;;;;;29.90;21.37;;;5.30;30.60;;;;;;20848;6767;116377;-90
2022/03/10 00:32:09;;;;;;;28.80;20.73;;;5.10;30.80;;;;;;20948;6759;116330;-90
2022/03/10 00:34:44;;;;;;;30.65;25.35;;;4.80;30.90;;;;;;20756;6755;339506;-89
2022/03/10 00:37:19;;;;;;;28.20;20.67;;;5.10;31.60;;;;;;20340;6768;117464;-88
2022/03/10 00:39:55;;;;;;;27.27;20.50;;;5.10;31.20;;;;;;20831;6777;116439;-87
2022/03/10 00:42:34;;;;;;;28.50;23.50;;;4.90;31.30;;;;;;19834;6802;306329;-89
2022/03/10 00:45:10;;;;;;;28.30;19.63;;;5.10;31.40;;;;;;20791;6782;119040;-89
2022/03/10 00:47:46;;;;;;;24.93;21.63;;;5.10;31.10;;;;;;20119;6804;331721;-86
2022/03/10 00:50:23;;;;;;;24.40;18.87;;;5.20;31.60;;;;;;20726;6821;116831;-86
2022/03/10 00:52:57;;;;;;;27.08;22.83;;;5.20;31.60;;;;;;20477;6808;337173;-90
2022/03/10 00:55:37;;;;;;;25.43;20.27;;;5.40;32.30;;;;;;20794;6801;118101;-86
2022/03/10 00:58:20;;;;;;;25.77;19.50;;;5.30;31.90;;;;;;20732;6777;121545;-85
2022/03/10 01:00:45;;;;;;;27.20;19.53;;;5.10;31.80;;;;;;20969;6746;123440;-92
2022/03/10 01:03:25;;;;;;;27.57;22.83;;;5.00;31.80;;;;;;20741;6746;309817;-88
2022/03/10 01:06:07;;;;;;;25.75;22.52;;;5.00;31.80;;;;;;20737;6742;311659;-88
2022/03/10 01:08:37;;;;;;;27.63;19.93;;;5.30;31.30;;;;;;20736;6742;116753;-89
2022/03/10 01:11:10;;;;;;;26.13;19.63;;;5.30;31.30;;;;;;20889;6747;119133;-85
2022/03/10 01:13:46;;;;;;;27.77;19.67;;;5.00;31.40;;;;;;20938;6747;116802;-90
2022/03/10 01:16:21;;;;;;;26.83;19.47;;;4.70;31.50;;;;;;20804;6762;117350;-87
2022/03/10 01:19:07;;;;;;;26.43;23.47;;;4.50;31.70;;;;;;20602;6760;340788;-84
2022/03/10 01:21:33;;;;;;;28.03;20.33;;;4.80;32.90;;;;;;20886;6747;117944;-87
2022/03/10 01:24:08;;;;;;;27.10;20.83;;;4.80;32.60;;;;;;20917;6747;116331;-84
2022/03/10 01:26:46;;;;;;;26.67;22.67;;;4.60;32.60;;;;;;20624;6751;343331;-84
2022/03/10 01:29:23;;;;;;;27.35;24.02;;;5.20;32.20;;;;;;20718;6731;309745;-90
2022/03/10 01:31:58;;;;;;;27.27;19.93;;;5.20;32.60;;;;;;20929;6731;116499;-83
2022/03/10 01:34:34;;;;;;;25.63;22.83;;;5.10;32.90;;;;;;20740;6731;291339;-86
2022/03/10 01:37:09;;;;;;;21.90;18.50;;;5.20;32.70;;;;;;20884;6731;117542;-87
2022/03/10 01:39:46;;;;;;;25.77;18.77;;;4.80;32.70;;;;;;20941;6731;120370;-89
2022/03/10 01:42:22;;;;;;;24.73;20.60;;;4.80;32.70;;;;;;20737;6731;332589;-88
2022/03/10 01:44:58;;;;;;;24.60;20.97;;;4.90;32.60;;;;;;20930;6731;123187;-84
2022/03/10 01:47:34;;;;;;;28.00;21.33;;;4.80;32.30;;;;;;20871;6731;121340;-88
2022/03/10 01:50:11;;;;;;;24.80;17.83;;;4.60;32.50;;;;;;20994;6716;119545;-85
2022/03/10 01:52:48;;;;;;;24.33;21.27;;;4.40;32.80;;;;;;20777;6716;306046;-87
2022/03/10 01:55:22;;;;;;;24.77;18.00;;;4.60;32.40;;;;;;20999;6716;116421;-89
2022/03/10 01:57:57;;;;;;;22.53;19.87;;;4.50;32.20;;;;;;20623;6716;290526;-87
2022/03/10 02:00:34;;;;;;;22.53;20.13;;;4.60;32.60;;;;;;20785;6716;303185;-85
2022/03/10 02:03:10;;;;;;;21.73;17.93;;;4.80;32.50;;;;;;20978;6716;120974;-86
2022/03/10 02:05:45;;;;;;;22.80;16.90;;;4.70;32.20;;;;;;20991;6719;121073;-86
2022/03/10 02:11:16;;;;;;;22.83;16.00;;;4.10;32.70;;;;;;20887;6763;117797;-87
2022/03/10 02:13:52;;;;;;;25.47;21.40;;;4.10;33.30;;;;;;20738;6738;311624;-87
2022/03/10 02:19:23;;;;;;;24.37;17.60;;;4.10;33.00;;;;;;20876;6765;116539;-86
2022/03/10 02:22:07;;;;;;;25.33;20.37;;;3.90;33.00;;;;;;20648;6765;304499;-87
2022/03/10 02:24:44;;;;;;;25.13;21.57;;;4.00;33.40;;;;;;20631;6766;278148;-84
2022/03/10 02:27:23;;;;;;;29.30;23.00;;;4.40;32.50;;;;;;20540;6763;338020;-84
2022/03/10 02:29:59;;;;;;;23.58;21.08;;;4.90;32.10;;;;;;20580;6771;319052;-84
2022/03/10 02:32:36;;;;;;;25.43;18.73;;;4.90;32.10;;;;;;20913;6752;117127;-84
2022/03/10 02:35:12;;;;;;;23.07;17.93;;;4.70;32.10;;;;;;20926;6749;123842;-85
2022/03/10 02:37:48;;;;;;;23.77;20.60;;;4.30;32.40;;;;;;20489;6774;283544;-86
2022/03/10 02:40:23;;;;;;;27.63;22.00;;;4.40;33.00;;;;;;20596;6793;281836;-87
2022/03/10 02:42:59;;;;;;;22.77;17.70;;;4.70;32.70;;;;;;20796;6778;116805;-88
2022/03/10 02:45:35;;;;;;;20.40;17.47;;;4.60;32.50;;;;;;20865;6768;118348;-87
2022/03/10 02:48:11;;;;;;;24.37;17.27;;;4.30;32.70;;;;;;20495;6745;117643;-85
2022/03/10 02:50:46;;;;;;;21.83;16.50;;;4.00;32.90;;;;;;20953;6745;117418;-88
2022/03/10 02:53:22;;;;;;;18.80;15.03;;;3.80;33.10;;;;;;20993;6732;117477;-86
2022/03/10 02:55:59;;;;;;;24.33;21.20;;;3.70;33.40;;;;;;20777;6732;280422;-84
2022/03/10 02:58:34;;;;;;;21.40;16.93;;;3.90;32.90;;;;;;20792;6779;118332;-88
2022/03/10 03:01:10;;;;;;;19.17;15.73;;;3.90;32.60;;;;;;20652;6816;117572;-84
2022/03/10 03:03:46;;;;;;;23.20;20.27;;;3.80;32.50;;;;;;20582;6796;300522;-84
2022/03/10 03:06:23;;;;;;;21.35;18.75;;;3.80;32.40;;;;;;20493;6772;325531;-87
2022/03/10 03:08:59;;;;;;;21.87;19.60;;;4.10;32.30;;;;;;20477;6778;278984;-87
2022/03/10 03:11:34;;;;;;;23.73;20.57;;;4.30;31.50;;;;;;20585;6783;304704;-84
2022/03/10 03:14:10;;;;;;;19.77;17.27;;;4.50;31.60;;;;;;20795;6778;117982;-87
2022/03/10 03:16:46;;;;;;;21.83;16.47;;;4.30;31.60;;;;;;20793;6764;116308;-87
2022/03/10 03:19:21;;;;;;;23.87;19.83;;;3.90;32.10;;;;;;20656;6760;310036;-86
2022/03/10 03:21:57;;;;;;;21.97;19.63;;;3.90;32.20;;;;;;20651;6764;306570;-87
2022/03/10 03:24:32;;;;;;;22.47;20.07;;;4.10;31.90;;;;;;20634;6721;304681;-87
2022/03/10 03:27:08;;;;;;;21.90;17.60;;;4.30;31.40;;;;;;20807;6721;116958;-84
2022/03/10 03:29:44;;;;;;;23.67;16.53;;;3.70;32.20;;;;;;20864;6771;118502;-87
2022/03/10 03:32:21;;;;;;;22.67;17.07;;;3.70;32.20;;;;;;20945;6739;117099;-86
2022/03/10 03:34:59;;;;;;;23.53;19.43;;;3.40;32.60;;;;;;20709;6736;277192;-87
2022/03/10 03:37:32;;;;;;;21.90;19.67;;;3.50;33.00;;;;;;20674;6736;279452;-84
2022/03/10 03:40:10;;;;;;;20.17;17.57;;;3.80;32.80;;;;;;20991;6762;117318;-86
2022/03/10 03:42:45;;;;;;;22.30;19.90;;;3.70;32.80;;;;;;20767;6733;276283;-85
2022/03/10 03:45:21;;;;;;;22.10;16.63;;;3.70;33.00;;;;;;20974;6738;116874;-85
2022/03/10 03:47:57;;;;;;;21.73;19.43;;;3.60;33.20;;;;;;20558;6748;312909;-87
2022/03/10 03:50:33;;;;;;;23.23;17.60;;;3.60;33.20;;;;;;20851;6759;117133;-88
2022/03/10 03:53:08;;;;;;;22.63;20.20;;;3.50;33.20;;;;;;20752;6738;306097;-84
2022/03/10 03:55:44;;;;;;;22.77;20.30;;;3.80;33.30;;;;;;20682;6759;306760;-84
2022/03/10 03:58:20;;;;;;;24.35;21.12;;;3.70;33.20;;;;;;20524;6738;292292;-85
2022/03/10 04:00:57;;;;;;;21.87;17.70;;;3.90;32.80;;;;;;20291;6805;126513;-88
2022/03/10 04:03:33;;;;;;;23.40;20.90;;;3.70;32.90;;;;;;20442;6836;290401;-84
2022/03/10 04:06:09;;;;;;;23.67;21.20;;;3.90;33.70;;;;;;20609;6778;308503;-84
2022/03/10 04:08:45;;;;;;;22.87;20.57;;;3.90;32.90;;;;;;20608;6778;280702;-85
2022/03/10 04:11:20;;;;;;;23.20;20.77;;;4.00;33.10;;;;;;20608;6788;309448;-86
2022/03/10 04:13:56;;;;;;;20.97;16.90;;;3.90;32.60;;;;;;20861;6771;117333;-85
2022/03/10 04:16:43;;;;;;;19.37;16.57;;;3.80;32.50;;;;;;20773;6777;120593;-86
2022/03/10 04:19:09;;;;;;;27.73;17.33;;;3.50;33.10;;;;;;20776;6793;117130;-89
2022/03/10 04:21:45;;;;;;;18.70;15.90;;;3.20;33.50;;;;;;20845;6785;117664;-88
2022/03/10 04:24:21;;;;;;;19.27;15.80;;;2.70;34.10;;;;;;20800;6789;117365;-85
2022/03/10 04:26:58;;;;;;;18.47;15.60;;;2.70;34.10;;;;;;20797;6774;116828;-84
2022/03/10 04:29:34;;;;;;;20.30;15.77;;;2.60;34.40;;;;;;21006;6727;116416;-85
2022/03/10 04:32:09;;;;;;;20.03;16.63;;;2.50;34.70;;;;;;20936;6751;116977;-84
2022/03/10 04:34:46;;;;;;;20.33;16.57;;;2.40;34.90;;;;;;20977;6753;117788;-86
2022/03/10 04:37:21;;;;;;;23.45;19.90;;;2.30;35.00;;;;;;20636;6750;279030;-87
2022/03/10 04:39:57;;;;;;;23.55;19.70;;;2.50;35.20;;;;;;20716;6753;291199;-87
2022/03/10 04:42:33;;;;;;;20.73;17.03;;;3.00;34.50;;;;;;20979;6738;116752;-84
2022/03/10 04:45:09;;;;;;;22.63;16.63;;;2.90;34.10;;;;;;20981;6734;122292;-88
2022/03/10 04:47:45;;;;;;;22.30;19.95;;;2.70;34.40;;;;;;20675;6734;308174;-86
2022/03/10 04:50:31;;;;;;;;;;;;;;;;;;;;;
2022/03/10 04:52:59;;;;;;;20.00;16.97;;;2.80;34.30;;;;;;20903;6738;122909;-89
2022/03/10 04:55:35;;;;;;;19.97;16.53;;;2.60;34.60;;;;;;20930;6745;116991;-88
2022/03/10 04:58:11;;;;;;;23.03;20.20;;;2.40;34.90;;;;;;20554;6753;308237;-87
2022/03/10 05:00:49;;;;;;;21.20;16.77;;;2.50;35.10;;;;;;20941;6731;116146;-85
2022/03/10 05:03:25;;;;;;;23.53;20.43;;;2.50;34.90;;;;;;20704;6740;305972;-85
2022/03/10 05:06:00;;;;;;;21.60;17.97;;;2.70;34.90;;;;;;20848;6754;117200;-85
2022/03/10 05:08:36;;;;;;;23.00;19.53;;;2.70;34.80;;;;;;20529;6743;307279;-87
2022/03/10 05:11:22;;;;;;;22.23;17.70;;;2.80;34.90;;;;;;20711;6759;118472;-85
2022/03/10 05:13:49;;;;;;;18.73;16.50;;;2.70;34.70;;;;;;20922;6759;117963;-86
2022/03/10 05:16:24;;;;;;;22.30;16.23;;;2.40;34.90;;;;;;20890;6754;119308;-86
2022/03/10 05:19:00;;;;;;;22.27;19.30;;;2.30;35.30;;;;;;20740;6735;304558;-86
2022/03/10 05:21:36;;;;;;;20.90;17.63;;;2.30;35.40;;;;;;20893;6745;117549;-85
2022/03/10 05:24:12;;;;;;;19.90;17.93;;;2.40;35.30;;;;;;20700;6739;306979;-84
2022/03/10 05:26:47;;;;;;;20.57;16.13;;;2.60;35.70;;;;;;20894;6734;117582;-84
2022/03/10 05:29:23;;;;;;;20.17;14.90;;;2.60;36.00;;;;;;20986;6744;67111;-84
2022/03/10 05:31:59;;;;;;;20.60;18.40;;;2.80;36.40;;;;;;20707;6760;275797;-83
2022/03/10 05:34:39;;;;;;;16.97;15.00;;;3.30;35.80;;;;;;20890;6766;121838;-87
2022/03/10 05:37:12;;;;;;;18.27;15.60;;;3.60;35.10;;;;;;20716;6766;118348;-86
2022/03/10 05:39:47;;;;;;;17.57;14.67;;;3.60;34.80;;;;;;20968;6746;116239;-84
2022/03/10 05:42:23;;;;;;;18.90;15.63;;;3.70;34.90;;;;;;20909;6759;117423;-92
2022/03/10 05:44:58;;;;;;;19.47;15.43;;;3.70;34.80;;;;;;20903;6758;118088;-91
2022/03/10 05:47:35;;;;;;;19.60;15.23;;;3.80;34.70;;;;;;20781;6763;116564;-85
2022/03/10 05:50:11;;;;;;;16.43;14.67;;;3.80;34.40;;;;;;20912;6763;117938;-84
2022/03/10 05:52:46;;;;;;;21.40;15.57;;;3.90;34.30;;;;;;20503;6763;67916;-86
2022/03/10 05:55:23;;;;;;;23.70;19.70;;;3.80;34.00;;;;;;20719;6742;312013;-83
2022/03/10 05:58:04;;;;;;;22.27;19.20;;;4.10;33.30;;;;;;20480;6772;310252;-84
2022/03/10 06:00:33;;;;;;;18.80;16.73;;;4.60;32.30;;;;;;20843;6798;116825;-84
2022/03/10 06:03:09;;;;;;;19.20;16.13;;;4.60;32.40;;;;;;20905;6749;116547;-84
2022/03/10 06:05:45;;;;;;;23.80;15.33;;;4.40;32.60;;;;;;20832;6757;117193;-85
2022/03/10 06:08:20;;;;;;;21.23;19.03;;;4.30;32.80;;;;;;20563;6753;307616;-85
2022/03/10 06:10:56;;;;;;;17.93;15.17;;;4.50;32.70;;;;;;20921;6760;117551;-85
2022/03/10 06:13:32;;;;;;;19.73;15.33;;;4.60;32.50;;;;;;20939;6743;117092;-85
2022/03/10 06:16:08;;;;;;;19.03;16.17;;;4.50;32.70;;;;;;20940;6743;117627;-91
2022/03/10 06:18:45;;;;;;;30.47;19.43;;;4.60;32.90;;;;;;20672;6801;123372;-87
2022/03/10 06:21:22;;;;;;;25.63;18.07;;;4.60;32.90;;;;;;20835;6756;116266;-85
2022/03/10 06:23:58;;;;;;;28.43;22.87;;;4.70;32.90;;;;;;20667;6743;309702;-84
2022/03/10 06:26:36;;;;;;;26.23;18.47;;;5.10;32.70;;;;;;20923;6724;117491;-84
2022/03/10 06:29:09;;;;;;;22.93;17.87;;;5.30;31.90;;;;;;20868;6742;121768;-90
2022/03/10 06:31:44;;;;;;;22.47;16.90;;;5.40;32.00;;;;;;20956;6742;116698;-91
2022/03/10 06:34:21;;;;;;;22.73;18.10;;;5.40;32.00;;;;;;20938;6742;116909;-90
2022/03/10 06:36:57;;;;;;;21.50;17.57;;;5.40;32.00;;;;;;20880;6742;122673;-87
2022/03/10 06:39:33;;;;;;;22.83;18.37;;;5.50;32.00;;;;;;20997;6734;116830;-91
2022/03/10 06:42:28;;;;;;;25.33;17.53;;;5.70;32.20;;;;;;20997;6734;118031;-95
2022/03/10 06:45:00;;;;;;;20.63;17.10;;;5.80;32.00;;;;;;20963;6734;143115;-88
2022/03/10 06:47:46;;;;;;;;;;;;;;;;;;;;;
2022/03/10 06:50:13;;;;;;;20.00;18.10;;;6.50;30.40;;;;;;20623;6757;306423;-87
2022/03/10 06:52:50;;;;;;;20.10;18.10;;;7.20;29.30;;;;;;20671;6742;276748;-85
2022/03/10 06:55:24;;;;;;;20.10;18.13;;;7.70;28.80;;;;;;20636;6768;277268;-85
2022/03/10 06:58:00;;;;;;;20.53;18.53;;;8.20;28.20;;;;;;20531;6753;309569;-86
2022/03/10 07:00:45;;;;;;;;;;;;;;;;;;;;;
2022/03/10 07:03:11;;;;;;;19.10;17.10;;;8.80;27.60;;;;;;20920;6727;123533;-86
2022/03/10 07:05:47;;;;;;;20.73;18.62;;;8.80;27.70;;;;;;20728;6727;309397;-86
2022/03/10 07:08:23;;;;;;;19.90;17.90;;;8.80;27.70;;;;;;20568;6727;291112;-86
2022/03/10 07:10:58;;;;;;;18.37;16.47;;;9.10;27.50;;;;;;20867;6800;117740;-86
2022/03/10 07:13:36;;;;;;;20.35;18.15;;;9.10;27.80;;;;;;20709;6741;306385;-84
2022/03/10 07:16:11;;;;;;;20.27;16.47;;;9.30;27.50;;;;;;20768;6771;117357;-86
2022/03/10 07:18:53;;;;;;;16.27;14.60;;;9.30;27.70;;;;;;20791;6811;117257;-85
2022/03/10 07:21:28;;;;;;;20.17;18.13;;;9.10;28.00;;;;;;20679;6753;310345;-86
2022/03/10 07:24:06;;;;;;;19.80;17.80;;;9.30;27.70;;;;;;20675;6756;278151;-85
2022/03/10 07:26:42;;;;;;;21.80;15.83;;;9.70;27.60;;;;;;20906;6744;117650;-84
2022/03/10 07:29:17;;;;;;;19.10;17.20;;;9.60;27.60;;;;;;20705;6741;326929;-85
2022/03/10 07:31:54;;;;;;;18.20;15.80;;;9.80;27.50;;;;;;20952;6735;116366;-86
2022/03/10 07:34:29;;;;;;;20.47;18.37;;;9.80;27.60;;;;;;20740;6735;276785;-87
2022/03/10 07:37:07;;;;;;;21.13;17.97;;;10.30;26.30;;;;;;20617;6738;287141;-88
2022/03/10 07:39:42;;;;;;;20.07;16.70;;;10.30;26.30;;;;;;20793;6753;117204;-85
2022/03/10 07:42:28;;;;;;;17.50;15.57;;;10.20;26.40;;;;;;20726;6771;117556;-83
2022/03/10 07:44:55;;;;;;;19.27;17.27;;;10.20;26.00;;;;;;20540;6783;308173;-85
2022/03/10 07:47:32;;;;;;;19.40;17.00;;;10.20;26.50;;;;;;20777;6746;118293;-84
2022/03/10 07:50:08;;;;;;;17.80;15.90;;;10.30;26.60;;;;;;20866;6759;117639;-87
2022/03/10 07:52:43;;;;;;;20.67;18.57;;;10.20;26.80;;;;;;20695;6755;326821;-87
2022/03/10 07:55:20;;;;;;;19.27;16.67;;;10.50;26.50;;;;;;20796;6783;118028;-94
2022/03/10 07:57:57;;;;;;;19.20;17.37;;;10.60;26.60;;;;;;20267;6790;299801;-87
2022/03/10 08:00:43;;;;;;;20.60;18.50;;;10.80;26.30;;;;;;20607;6757;307291;-84
2022/03/10 08:03:12;;;;;;;18.60;16.63;;;11.20;25.90;;;;;;20810;6762;123918;-88
2022/03/10 08:05:48;;;;;;;18.77;16.70;;;11.20;26.00;;;;;;20885;6740;119315;-87
2022/03/10 08:08:23;;;;;;;17.53;15.73;;;11.10;26.40;;;;;;20619;6749;118728;-87
2022/03/10 08:11:03;;;;;;;20.17;18.08;;;11.20;26.10;;;;;;20635;6753;285494;-87
2022/03/10 08:13:37;;;;;;;18.87;17.00;;;11.20;26.10;;;;;;20774;6750;120688;-90
2022/03/10 08:51:45;;;;;;;20.23;18.23;;;14.40;23.90;;;;;;21291;6545;67209;-86
2022/03/10 08:54:12;;;;;;;20.77;18.77;;;14.30;24.30;;;;;;20517;6847;338598;-86
2022/03/10 08:56:36;;;;;;;21.17;19.17;;;14.20;24.20;;;;;;20499;6832;311755;-89
2022/03/10 08:59:01;;;;;;;20.67;18.67;;;14.40;24.10;;;;;;20559;6890;122781;-84
2022/03/10 09:01:27;;;;;;;21.77;19.77;;;14.30;24.40;;;;;;20401;6890;280690;-87
2022/03/10 09:03:53;;;;;;;20.52;18.33;;;14.30;24.60;;;;;;20573;6890;118065;-86
2022/03/10 09:06:21;;;;;;;20.57;18.40;;;14.30;24.60;;;;;;20544;6904;118418;-85
2022/03/10 09:08:48;;;;;;;21.52;19.50;;;14.10;24.80;;;;;;20332;6904;310646;-87
2022/03/10 09:11:12;;;;;;;21.93;19.73;;;14.30;24.70;;;;;;20342;6893;310360;-87
2022/03/10 09:13:40;;;;;;;22.43;20.23;;;14.60;24.50;;;;;;20369;6893;280352;-87
2022/03/10 09:16:05;;;;;;;20.37;18.27;;;14.90;24.20;;;;;;20575;6893;118288;-87
2022/03/10 09:18:32;;;;;;;19.73;17.43;;;14.80;24.40;;;;;;20575;6893;123608;-88
2022/03/10 09:20:57;;;;;;;20.33;18.17;;;14.60;24.70;;;;;;20568;6893;121866;-87
2022/03/10 09:23:23;;;;;;;19.23;17.30;;;14.50;24.90;;;;;;20581;6893;118027;-88
2022/03/10 09:25:49;;;;;;;20.73;18.73;;;14.30;25.20;;;;;;20388;6890;343410;-88
2022/03/10 09:28:15;;;;;;;18.73;17.13;;;14.50;24.80;;;;;;20383;6890;314316;-88
2022/03/10 09:30:41;;;;;;;19.23;17.00;;;14.90;24.30;;;;;;20593;6894;118479;-88
2022/03/10 09:33:06;;;;;;;18.97;17.30;;;14.90;24.30;;;;;;20379;6875;343020;-88
2022/03/10 09:35:32;;;;;;;19.23;17.50;;;15.00;24.80;;;;;;20434;6875;307498;-88
2022/03/10 09:37:57;;;;;;;17.20;15.60;;;15.30;24.50;;;;;;20635;6879;117839;-89
2022/03/10 09:40:23;;;;;;;18.58;16.87;;;15.40;24.60;;;;;;20427;6879;280483;-90
2022/03/10 09:42:49;;;;;;;14.90;13.50;;;15.40;24.20;;;;;;20607;6879;118320;-88
2022/03/10 09:45:14;;;;;;;16.10;14.70;;;15.50;24.30;;;;;;20625;6879;118149;-89
2022/03/10 09:47:39;;;;;;;14.15;12.82;;;15.30;24.40;;;;;;20625;6879;119810;-93
2022/03/10 09:50:06;;;;;;;15.75;14.23;;;15.20;24.60;;;;;;20625;6879;118054;-88
2022/03/10 09:52:34;;;;;;;14.33;13.03;;;15.00;24.70;;;;;;20407;6879;279831;-85
2022/03/10 09:54:59;;;;;;;13.00;11.70;;;15.20;24.90;;;;;;20610;6879;119982;-87
2022/03/10 09:57:25;;;;;;;12.85;11.65;;;15.30;24.50;;;;;;20596;6890;118311;-88
2022/03/10 09:59:50;;;;;;;12.75;11.55;;;15.20;24.40;;;;;;20596;6890;118666;-86
2022/03/10 10:02:15;;;;;;;12.20;11.12;;;15.20;24.60;;;;;;20568;6888;121865;-86
2022/03/10 10:04:43;;;;;;;14.23;12.93;;;15.00;24.50;;;;;;20586;6890;118402;-86
2022/03/10 10:07:10;;;;;;;13.27;12.07;;;15.00;24.50;;;;;;20562;6891;118095;-86
2022/03/10 10:09:47;;;;;;;10.93;10.03;;;14.90;24.50;;;;;;20581;6891;118247;-86
2022/03/10 10:12:13;;;;;;;11.83;10.83;;;14.90;24.50;;;;;;20553;6891;122994;-85
2022/03/10 10:14:44;;;;;;;12.80;10.50;;;14.80;24.40;;;;;;20580;6891;119160;-87
2022/03/10 10:17:09;;;;;;;12.88;11.73;;;14.80;24.40;;;;;;20348;6891;328642;-87
2022/03/10 10:19:35;;;;;;;12.00;10.98;;;15.10;23.70;;;;;;20373;6891;315879;-87
2022/03/10 10:22:07;;;;;;;9.32;8.63;;;15.50;23.40;;;;;;20622;6891;117537;-86
2022/03/10 10:24:35;;;;;;;10.82;9.93;;;15.60;23.40;;;;;;20342;6891;339555;-86
2022/03/10 10:27:15;;;;;;;9.20;8.60;;;15.70;22.80;;;;;;20414;6891;309945;-86
2022/03/10 10:29:40;;;;;;;10.50;9.60;;;16.00;22.40;;;;;;20441;6891;308416;-86
2022/03/10 10:32:05;;;;;;;9.33;8.07;;;16.20;22.50;;;;;;20621;6891;118636;-86
2022/03/10 10:34:31;;;;;;;9.40;8.70;;;16.20;22.80;;;;;;20436;6891;284803;-87
2022/03/10 10:36:57;;;;;;;10.75;9.75;;;16.30;23.00;;;;;;20361;6891;285379;-87
2022/03/10 10:39:23;;;;;;;9.50;8.80;;;16.60;22.80;;;;;;20378;6891;310837;-85
2022/03/10 10:41:50;;;;;;;9.95;9.15;;;17.00;21.80;;;;;;20381;6891;309366;-86
2022/03/10 10:44:16;;;;;;;10.70;9.02;;;16.90;21.70;;;;;;20375;6891;343828;-85
2022/03/10 10:46:41;;;;;;;12.40;8.80;;;17.10;21.70;;;;;;20586;6891;118211;-86
2022/03/10 10:49:17;;;;;;;9.57;8.77;;;16.80;21.90;;;;;;20362;6891;310909;-85
2022/03/10 10:51:46;;;;;;;8.17;7.47;;;16.80;22.60;;;;;;20624;6891;67803;-84
2022/03/10 10:54:19;;;;;;;9.20;8.43;;;16.80;22.70;;;;;;20405;6891;311589;-86
2022/03/10 10:56:46;;;;;;;8.27;7.47;;;16.80;22.10;;;;;;20642;6891;117147;-87
2022/03/10 10:59:11;;;;;;;7.93;7.33;;;16.80;22.40;;;;;;20495;6891;118141;-88
2022/03/10 11:01:38;;;;;;;8.73;7.95;;;16.70;22.60;;;;;;20333;6891;281384;-87
2022/03/10 11:04:04;;;;;;;7.80;7.20;;;16.80;21.80;;;;;;20594;6891;118125;-87
2022/03/10 11:06:29;;;;;;;6.70;6.10;;;16.80;22.00;;;;;;20591;6891;117731;-86
2022/03/10 11:08:55;;;;;;;8.13;7.43;;;16.70;22.10;;;;;;20585;6891;123816;-87
2022/03/10 11:11:20;;;;;;;8.20;7.60;;;16.60;22.40;;;;;;20593;6891;121651;-88
2022/03/10 11:13:50;;;;;;;8.27;7.63;;;16.50;22.50;;;;;;20596;6889;117476;-87
2022/03/10 11:16:16;;;;;;;9.32;8.50;;;16.50;22.60;;;;;;20381;6890;280601;-87
2022/03/10 11:18:49;;;;;;;5.12;4.62;;;16.70;22.50;;;;;;20589;6891;117533;-88
2022/03/10 11:21:23;;;;;;;33.90;31.00;;;16.80;22.00;;;;;;20564;6891;118212;-87
2022/03/10 11:23:49;;;;;;;6.43;5.93;;;16.70;21.60;;;;;;20383;6891;280520;-86
2022/03/10 11:26:30;;;;;;;4.90;4.50;;;16.90;21.20;;;;;;20347;6891;281097;-86
2022/03/10 11:28:56;;;;;;;5.37;3.87;;;17.20;20.70;;;;;;20358;6891;283829;-87
2022/03/10 11:31:21;;;;;;;3.47;3.28;;;17.50;20.10;;;;;;20590;6891;118240;-87
2022/03/10 11:33:47;;;;;;;4.10;3.53;;;17.50;20.30;;;;;;20375;6891;310014;-85
2022/03/10 11:36:23;;;;;;;3.30;3.10;;;17.60;19.80;;;;;;20596;6891;117515;-83
2022/03/10 11:38:55;;;;;;;3.40;3.20;;;17.50;19.90;;;;;;20586;6891;118991;-86
2022/03/10 11:41:27;;;;;;;2.87;2.70;;;17.30;20.10;;;;;;20423;6891;117920;-85
2022/03/10 11:43:59;;;;;;;3.60;3.40;;;17.10;20.20;;;;;;20365;6891;310918;-87
2022/03/10 11:46:31;;;;;;;3.47;3.27;;;17.10;19.10;;;;;;20593;6891;118460;-87
2022/03/10 11:49:07;;;;;;;3.13;2.93;;;17.00;19.40;;;;;;20565;6891;118054;-86
2022/03/10 11:51:52;;;;;;;3.20;2.70;;;16.90;19.70;;;;;;20584;6891;117802;-86
2022/03/10 11:54:24;;;;;;;2.57;2.47;;;16.80;19.80;;;;;;20577;6891;117831;-86
2022/03/10 11:56:50;;;;;;;4.10;3.90;;;16.60;19.90;;;;;;20348;6891;280616;-85
2022/03/10 11:59:24;;;;;;;3.10;3.00;;;16.90;19.60;;;;;;20369;6891;310280;-83
2022/03/10 12:01:51;;;;;;;3.03;2.90;;;17.30;19.80;;;;;;20573;6891;118027;-84
2022/03/10 12:04:17;;;;;;;2.97;2.77;;;17.30;19.70;;;;;;20577;6891;117558;-87
2022/03/10 12:06:48;;;;;;;2.80;2.60;;;17.00;20.00;;;;;;20571;6891;117481;-84
2022/03/10 12:09:14;;;;;;;3.45;3.25;;;17.00;19.90;;;;;;20319;6891;343604;-85
2022/03/10 12:11:46;;;;;;;6.60;3.10;;;17.10;19.50;;;;;;20529;6891;117829;-86
2022/03/10 12:14:25;;;;;;;8.93;8.27;;;17.10;19.50;;;;;;20583;6891;118928;-87
2022/03/10 12:16:51;;;;;;;3.05;2.90;;;17.00;19.80;;;;;;20337;6891;340553;-88
2022/03/10 12:19:16;;;;;;;2.80;2.70;;;17.20;19.10;;;;;;20593;6891;122698;-89
2022/03/10 12:21:42;;;;;;;3.37;2.97;;;17.20;19.40;;;;;;20382;6891;280610;-89
2022/03/10 12:24:08;;;;;;;3.10;2.90;;;17.60;18.80;;;;;;20356;6889;311047;-86
2022/03/10 12:26:34;;;;;;;3.40;3.10;;;17.60;18.80;;;;;;20361;6890;306387;-88
2022/03/10 12:29:06;;;;;;;2.60;2.50;;;17.80;18.60;;;;;;20547;6891;118255;-87
2022/03/10 12:31:38;;;;;;;3.00;2.80;;;17.70;18.80;;;;;;20577;6891;118839;-90
2022/03/10 12:34:09;;;;;;;2.77;2.63;;;17.10;19.20;;;;;;20582;6891;117537;-88
2022/03/10 12:36:36;;;;;;;3.03;2.77;;;17.10;19.20;;;;;;20571;6891;117761;-88
2022/03/10 12:39:15;;;;;;;3.20;2.80;;;16.90;19.30;;;;;;20514;6891;127280;-89
2022/03/10 12:41:48;;;;;;;3.80;2.90;;;16.50;20.30;;;;;;20578;6891;118021;-89
2022/03/10 12:44:15;;;;;;;3.07;2.83;;;16.40;20.00;;;;;;20578;6891;118692;-88
2022/03/10 12:46:41;;;;;;;14.45;12.63;;;16.40;20.00;;;;;;20380;6891;280841;-87
2022/03/10 12:49:10;;;;;;;2.77;2.60;;;16.70;19.40;;;;;;20570;6891;118963;-87
2022/03/10 12:51:35;;;;;;;2.77;2.60;;;16.70;19.50;;;;;;20591;6891;117754;-87
2022/03/10 12:54:01;;;;;;;3.17;2.97;;;16.70;19.50;;;;;;20589;6891;117515;-88
2022/03/10 12:56:26;;;;;;;3.77;3.00;;;16.60;20.20;;;;;;20367;6891;344787;-87
2022/03/10 12:58:54;;;;;;;3.00;2.90;;;16.80;19.20;;;;;;20567;6891;118219;-90
2022/03/10 13:01:20;;;;;;;3.03;2.77;;;16.80;19.20;;;;;;20568;6891;118798;-88
2022/03/10 13:03:49;;;;;;;2.93;2.73;;;16.60;19.40;;;;;;20580;6891;118527;-91
2022/03/10 13:06:15;;;;;;;3.55;3.35;;;16.60;19.40;;;;;;20368;6891;339529;-85
2022/03/10 13:08:42;;;;;;;3.70;3.40;;;16.70;19.20;;;;;;20369;6891;339416;-86
2022/03/10 13:11:06;;;;;;;3.03;2.83;;;17.10;18.70;;;;;;20556;6891;121591;-86
2022/03/10 13:13:32;;;;;;;3.40;3.20;;;17.20;18.90;;;;;;20379;6891;310304;-87
2022/03/10 13:15:58;;;;;;;3.23;3.03;;;17.20;18.90;;;;;;20382;6891;280495;-85
2022/03/10 13:18:24;;;;;;;4.30;3.17;;;17.50;18.30;;;;;;20349;6891;310031;-85
2022/03/10 13:20:49;;;;;;;3.50;3.20;;;17.50;17.80;;;;;;20564;6891;118211;-85
2022/03/10 13:23:15;;;;;;;3.57;3.37;;;17.40;18.00;;;;;;20576;6891;117820;-87
2022/03/10 13:25:43;;;;;;;3.27;3.10;;;17.10;18.10;;;;;;20345;6891;304958;-87
2022/03/10 13:28:10;;;;;;;3.37;3.17;;;17.10;18.00;;;;;;20571;6891;117502;-86
2022/03/10 13:30:39;;;;;;;4.25;3.95;;;17.10;17.70;;;;;;20353;6891;314310;-86
2022/03/10 13:33:03;;;;;;;3.27;3.07;;;17.10;17.70;;;;;;20553;6891;121469;-86
2022/03/10 13:35:40;;;;;;;4.20;3.92;;;17.10;18.20;;;;;;20357;6889;280283;-86
2022/03/10 13:38:05;;;;;;;4.45;4.25;;;17.10;18.20;;;;;;20296;6890;310189;-86
2022/03/10 13:40:36;;;;;;;5.00;4.70;;;17.30;17.60;;;;;;20571;6891;117468;-86